Timeline UpdatesTrip UpdatesNews PostsPvt PostsTravel TipsAdmin PostsConv PostsFollowed PostsChat RequestsBlog PostsPNR Posts

Disclaimer
Search
 
 
Thu Aug 21, 2014 19:33:35 ISTHomeTrainsΣChainsAtlasPNRForumGalleryNewsFAQTripsMembersLoginFeedback
No Recent News for this Train
Other Trains in the News **new
Latest...
there are good chances of tkt to be confmed upto WL 80. in non peak season. condition may be different for diwali or peak season.
Wed Feb 26, 2014 (02:31PM)
⇐ Return Journey: Train# 19020

19019/Mumbai Bandra Terminus- Dehradun Express

Apr 15 2014 (1:36PM)
Change Departure Station:
Change Arrival Station:
Post a Train Travel TipPost a Train Travel Tip **new
Post a Comment/Question/Picture/VideoPost a Comment/Question/Picture/Video
Pantry/Catering
✕ NO Pantry Car
✓ Catering Avbl
Loco/Rake Reversals
LRJ/Laksar Junction (4); SRE/Saharanpur Junction (6);
RSA - Rake Sharing
Rake/Coach Composition
LOCO-SLR-S9-S8-S7-S6-S5-S4-S3-S2-S1-AB1-GEN-GEN-HCPV-SLR;;; S9,S8,S7,S6 -(BANDRA TERMINUS-HARIDWAR); Rest Coaches-(BANDRA TERMINUS-DEHRADUN) ; Entry# 571623.
Loco
GZB WAP7 - (BDTS - NZM) TKD WDP 3A -...
Read more...
(NZM - DDN).
News    PNR    Forum    Time-Table    Availability    Fare Chart    Map    Arr/Dep History    Trips    Gallery    ΣChains    X/O    Timeline    
Travel Time: 4h 0m    7 halts    Distance: 233 km    Avg Speed: 58 km/hr
Type: Mail/Express
Zone: WR/Western
Departs @ 00:40 (Avg 7m late)
Platform# 6
SMTWTFS
Mumbai Borivali/BVI 
Arrives @ 04:40 (Avg 3m late)
Platform# 1
SMTWTFS
Surat/ST 

7 halts. 40 intermediate Stations between Mumbai Borivali and Surat

Show ALL intermediate Stations  Show Old Time-Table

#CodeStation NameX/OArrivesAvgDepartsAvgHaltPFDay#KmSpeedElevZoneAddress
1BDTSMumbai Bandra Terminus (5)  -00:05+111-18.7344mWRMumbai 400050, Maharashtra
2BVI»Mumbai Borivali (8)»  00:38+400:40+72m610.04519mWRMumbai - 400092, Maharashtra
3BSRVasai Road (7)XO  01:03+201:05+32m3117.4797mWRVasai 401202, Maharashtra
4PLGPalghar (3)X  01:35+1701:37+192m1157.05219mWRPalghar, Maharashtra
5DRDDahanu Road (5)X  02:15+902:17+92m1190.09112mWRDahanu, Maharashtra
6VAPIVapi (3)X  02:49+1202:51+132m11138.54927mWRVapi, Gujarat
7BLValsad (3)X  03:23+603:25+122m11164.75715mWRValsad, Gujarat
8BIMBilimora Junction (4)X  03:44+803:46+82m11182.77911mWRBilimora, Gujarat
9NVSNavsari (3)  04:02+704:04+82m11203.84914mWRNavsari, Gujarat
10ST•Surat (4)•X  04:40+304:45+45m11233.47219mWRSurat 395001, Gujarat
11KSBKosamba Junction (3)05:11+1005:13+92m--1264.8-30mWRKosamba, Gujarat
12AKVAnkleshwar Junction (4)X  05:19+1905:21+192m11283.44319mWRAnkleshwar, Gujarat
13BHBharuch Junction (5)  05:34+1805:36+182m31292.78719mWRBharuch, Gujarat
14MYGMiyagam Karjan (2)X  06:04+2206:06+222m21333.45329mWRKarjan, Gujarat
15BRCVadodara Junction (7)X  06:40+2406:50+2910m21363.27336mWRVadodara 390005, Gujarat
16SMLASamlaya Junction (3)  07:12+1807:14+172m21389.86767mWRVadodara, Gujarat
17CPNChampaner Road Junction  07:24+1607:26+152m21401.05478mWRPanchmahal, Gujarat
18DRLDerolX  07:40+1207:42+112m21413.57681mWRKalol, Gujarat
19KRSAKharsaliya (2)X  07:52+1007:54+102m21426.225107mWRPanchmahal, Gujarat
20GDAGodhra Junction (3)O  08:20+1408:25+135m21437.164122mWRGodhra, Gujarat
21SATSant Road (2)  08:44+2908:46+282m21457.571169mWROrwara, Gujarat
22PPDPiplod Junction  08:56+3108:58+322m21469.379209mWRPiplod, Gujarat
23LMKLimkhedaXO  09:04+3409:06+362m21477.325205mWRLimkheda, Gujarat
24MAMMangal Mahudi (2)X  09:27+2609:29+262m21485.969248mWRDabhada, Gujarat
25DHDDahod (3)X  09:50+2609:55+265m21510.291313mWRDahod, Gujarat
26BIOBordi (2)  10:02+3110:04+302m--1520.879289mWRNational Highway 59, Gujarat
27ANASAnas (2)X  10:10+3010:12+292m--1528.880288mWRMadhya Pradesh 389154 ?, Madhya Pradesh
28MGNMeghnagar (3)  10:23+3210:25+332m--1543.360317mWRJhabua, Madhya Pradesh
29THDRThandla Road (2)  10:33+3310:35+322m--1551.370317mWRJhabua, Madhya Pradesh
30PCNPanch Pipila (2)  10:47+3610:49+352m--1565.257369mWRSH 39A, Madhya Pradesh
31AGRAmargarh (2)  10:59+3511:01+342m--1574.750410mWRSH 39A, Madhya Pradesh
32BMIBamnia (2)X  11:06+3511:08+342m--1578.951392mWRBamnia, Madhya Pradesh
33BOGBhairongarh (2)X  11:15+3511:17+352m--1584.971374mWRBhairongarh Railway Station, Madhya Pradesh
34RTIRaoti (2)X  11:27+3611:29+362m--1596.761409mWRState Highway 39A, Madhya Pradesh
35BILDBildi (2)  11:36+3811:38+372m--1603.968422mWRMadhya Pradesh, Madhya Pradesh
36MRNMorwani (2)X  11:46+3911:48+392m--1612.920459mWRDantoda, Madhya Pradesh
37RTMRatlam Junction (7)X  12:20+3012:40+3020m51623.659495mWRRatlam, Madhya Pradesh
38BODBangrod  12:50+3312:52+332m--1633.563484mWRRatlam, Madhya Pradesh
39RNHRunkhera  12:59+3413:01+342m--1640.863478mWRUjjain, Madhya Pradesh
40KUHKhachrod (2)X  13:11+3613:13+352m--1651.313497mWRUjjain, Madhya Pradesh
41NADNagda Junction (4)  14:15+714:25+710m11665.157468mWRNagda, Madhya Pradesh
42MEPMahidpur RoadX  14:43+914:45+112m--1682.180493mWCRGogapur, Madhya Pradesh
43LNRLuni RichhaX  14:53+1114:55+112m--1692.861471mWCRAlote, Madhya Pradesh
44VMAVikramgarh Alot (2)  15:08+915:10+122m21706.051443mWCRKota Division, Madhya Pradesh
45THURThuria  15:19+1015:21+112m--1713.771430mWCRMDR 45, Madhya Pradesh
46CMUChau Mahla (3)X  15:33+1215:35+142m21727.871426mWCRJhalawar, Rajasthan
47SVASuwasra (2)X  15:48+1515:50+162m--1743.262450mWCRSuwasra, Madhya Pradesh
48SGZShamgarh (3)X  16:03+1616:08+155m--1756.665463mWCRMandsaur, Madhya Pradesh
49GOHGaroth (2)X  16:18+1416:20+142m21767.572441mWCRMadhya Pradesh 458880, Madhya Pradesh
50BWMBhawani Mandi (3)X  16:39+1316:41+162m--1790.158384mWCRBhawani Mandi, Madhya Pradesh
51JHWJhalawar Road (3)  16:58+1417:00+142m--1806.657361mWCRJhalawar City, Rajasthan
52RMARamganj Mandi Junction (3)X  17:13+1117:15+152m--1819.042358mWCRRamganj Mandi, Rajasthan
53MKXMorak (2)  17:28+1317:30+142m--1828.068337mWCRMorak, Rajasthan
54DARADaraXO  17:43+1717:45+182m--1842.848354mWCRDara, Rajasthan
55DKNTDakaniya Talav (2)  18:33+1118:35+142m11880.922278mWCRKota, Rajasthan
56KOTAKota Junction (5)X  19:00+519:30+1730m11890.236256mWCRKota, Rajasthan
57GQLGurlaX  19:39+2219:41+222m--1895.753251mWCRSH 33, Rajasthan
58KPTNKeshorai PatanX  19:50+2119:52+212m--1903.681243mWCRSH 33, Rajasthan
59KPZKapren  20:07+2220:09+222m--1923.7124234mWCRKota - Lalsot Mega Highway, Rajasthan
60LKELakheri (3)  20:22+3120:24+322m--1950.747228mWCRBundi, Rajasthan
61IDGIndargarh Sumerganj Mandi (2)X  20:38+3120:40+322m--1961.772247mWCRIndargarh, Rajasthan
62SWMSawai Madhopur Junction (4)X  21:10+3521:15+365m--1997.965266mWCRSawai Madhopur, Rajasthan
63MLZMalarna  21:43+3421:45+342m--11028.167236mWCRSawai Madhopur, Rajasthan
64NNWNarayanpur Tatwara (2)  22:00+3522:02+352m--11044.931256mWCRSawai Madhopur, Rajasthan
65GGCGangapur City (3)  22:35+2122:40+265m211061.868270mWCRGangapur, Rajasthan
66SMBJShri Mahabirji (3)  23:10+2523:12+262m--11095.956240mWCRKarauli, Rajasthan
67HANHindaun City (2)  23:23+2623:25+292m--11106.179230mWCRKarauli, Rajasthan
68FSPFateh Singhpura  23:35+3023:37+302m--11119.336223mWCRState Highway 1, Rajasthan
69BXNBayana Junction (3)X  00:10+2200:15+295m--21139.063198mWCRBayana, Rajasthan
70BTEBharatpur Junction (5)X  00:55+1901:00+385m--21181.025174mWCRBharatpur, Rajasthan
71MTJMathura Junction (10)O  02:20+802:25+135m321214.575179mNCRMathura, Uttar Pradesh
72KSVKosi Kalan (3)  02:58+1403:00+142m121256.048189mNCRKosi Kalan, Uttar Pradesh
73PWLPalwal (8)  03:53+003:55+42m--21298.452200mNRPalwal, Haryana
74ASTAsaoti (5)  04:08+604:10+62m321309.759203mNRAsaoti, Haryana
75BVHBallabgarh (5)X  04:20+1004:22+102m321319.644203mNRFaridabad, Haryana
76FDBFaridabad (4)  04:33+1404:35+142m221327.756206mNRold Faridabad, Haryana
77TKDTuglakabad (4)X  04:47+1704:49+172m--21338.821213mNRNear Tughlakabad Metro Station, Delhi NCT
78OKAOkhla (4)X  05:06+1405:08+152m--21344.813221mNRIshwar Nagar Mathura Road, Delhi NCT
79NZMDelhi Hazrat Nizamuddin (7)05:25+1405:50+1525m121348.546209mNRNew Delhi 110013, Delhi NCT
80SBBSahibabad Junction (5)X  06:11+3306:13+332m--21364.520209mNRGhaziabad, Uttar Pradesh
81GZBGhaziabad Junction (6)  06:33+2806:35+282m121371.259217mNRGhaziabad, Uttar Pradesh
82GZNNew Ghaziabad (2)  06:41-06:43-2m--21377.170213mNRGhaziabad, Uttar Pradesh
83MUDMuradnagar (2)  06:53+4106:55+502m--21388.867220mNRGhaziabad, Uttar Pradesh
84MDNRModinagar (2)X  07:04+5507:06+572m--21399.061221mNRGhaziabad, Uttar Pradesh
85MTCMeerut City Junction (6)XO  07:25+5808:30+3965m421418.432229mNRMeerut, Uttar Pradesh
86MUTMeerut Cantt. (2)X  08:38+3808:40+422m--21422.822230mNRMeerut, Uttar Pradesh
87KATKhatauli (2)X  09:58+1910:00+202m121451.838239mNRKhatauli, Uttar Pradesh
88MOZMuzaffarnagar (3)X  10:35+1910:37+232m221474.040247mNRMuzaffarNagar, Uttar Pradesh
89DBDDeoband (2)X  11:13+1411:15+162m--21498.037258mNRSaharanpur, Uttar Pradesh
90SRESaharanpur Junction (6)XO12:10+912:45+135m521532.269276mNRSaharanpur, Uttar Pradesh
91RKRoorkee (3)  13:15+1313:17+152m121567.038264mNRRoorkee - 247667, Uttarakhand
92LRJLaksar Junction (4)X13:45+914:10+1025m--21584.769238mNRLaksar, Uttarakhand
93JWPJwalapur  14:30+1614:32+252m121607.713292mNRHaridwar, Uttarakhand
94HWHaridwar Junction (9)X  14:50+1415:15+1825m121611.727294mNRHaridwar, Uttarakhand
95MOTCMotichur (2)X  15:25+2315:27+242m121616.219312mNRHaridwar, Uttarakhand
96RWLRaiwala Junction (2)  15:48+1415:50+152m121622.829361mNRRishikesh, Uttarakhand
97DWODoiwala  16:33+416:35+72m121643.520484mNRDehradun, Uttarakhand
98DDNDehradun (4)  17:35+0-321663.3-648mNRDehradun, Uttarakhand
Scroll to Top
Scroll to Bottom